sensor_id;sensor_type;location;lat;lon;timestamp;pressure;altitude;pressure_sealevel;temperature;humidity
40982;BME280;26708;50.304;19.028;2023-12-20T00:00:52;97784.16;;;9.26;46.10
40982;BME280;26708;50.304;19.028;2023-12-20T00:02:59;97783.38;;;9.19;46.62
40982;BME280;26708;50.304;19.028;2023-12-20T00:05:05;97799.03;;;9.18;46.68
40982;BME280;26708;50.304;19.028;2023-12-20T00:07:13;97774.78;;;9.07;46.74
40982;BME280;26708;50.304;19.028;2023-12-20T00:09:25;97754.81;;;9.04;47.46
40982;BME280;26708;50.304;19.028;2023-12-20T00:11:27;97782.50;;;9.19;47.85
40982;BME280;26708;50.304;19.028;2023-12-20T00:13:32;97764.28;;;9.13;47.92
40982;BME280;26708;50.304;19.028;2023-12-20T00:15:45;97700.34;;;8.71;48.05
40982;BME280;26708;50.304;19.028;2023-12-20T00:17:50;97760.13;;;8.95;48.06
40982;BME280;26708;50.304;19.028;2023-12-20T00:19:54;97664.03;;;8.49;48.36
40982;BME280;26708;50.304;19.028;2023-12-20T00:22:00;97721.06;;;8.85;48.15
40982;BME280;26708;50.304;19.028;2023-12-20T00:24:05;97731.41;;;8.95;48.59
40982;BME280;26708;50.304;19.028;2023-12-20T00:26:12;97720.19;;;8.84;48.62
40982;BME280;26708;50.304;19.028;2023-12-20T00:28:18;97739.19;;;9.00;48.41
40982;BME280;26708;50.304;19.028;2023-12-20T00:30:22;97734.91;;;8.91;48.12
40982;BME280;26708;50.304;19.028;2023-12-20T00:32:27;97755.00;;;8.86;49.00
40982;BME280;26708;50.304;19.028;2023-12-20T00:34:34;97737.72;;;8.70;49.14
40982;BME280;26708;50.304;19.028;2023-12-20T00:36:39;97755.84;;;8.85;48.41
40982;BME280;26708;50.304;19.028;2023-12-20T00:38:43;97766.31;;;8.84;48.70
40982;BME280;26708;50.304;19.028;2023-12-20T00:40:49;97620.03;;;8.11;47.94
40982;BME280;26708;50.304;19.028;2023-12-20T00:42:56;97755.00;;;8.86;48.21
40982;BME280;26708;50.304;19.028;2023-12-20T00:45:01;97752.34;;;8.88;47.81
40982;BME280;26708;50.304;19.028;2023-12-20T00:47:07;97718.66;;;8.65;47.68
40982;BME280;26708;50.304;19.028;2023-12-20T00:49:11;97774.06;;;8.93;47.40
40982;BME280;26708;50.304;19.028;2023-12-20T00:51:16;97747.97;;;8.94;47.55
40982;BME280;26708;50.304;19.028;2023-12-20T00:53:22;97661.56;;;8.35;47.23
40982;BME280;26708;50.304;19.028;2023-12-20T00:55:26;97750.53;;;8.97;47.33
40982;BME280;26708;50.304;19.028;2023-12-20T00:57:52;97622.41;;;8.41;46.45
40982;BME280;26708;50.304;19.028;2023-12-20T01:00:06;97704.38;;;9.02;45.71
40982;BME280;26708;50.304;19.028;2023-12-20T01:02:14;97699.19;;;8.98;45.55
40982;BME280;26708;50.304;19.028;2023-12-20T01:04:16;97689.78;;;8.83;45.66
40982;BME280;26708;50.304;19.028;2023-12-20T01:06:24;97699.19;;;8.99;45.32
40982;BME280;26708;50.304;19.028;2023-12-20T01:08:30;97709.59;;;9.02;45.36
40982;BME280;26708;50.304;19.028;2023-12-20T01:10:36;97679.13;;;9.06;44.97
40982;BME280;26708;50.304;19.028;2023-12-20T01:12:46;97466.75;;;7.67;43.95
40982;BME280;26708;50.304;19.028;2023-12-20T01:14:52;97693.91;;;9.05;43.91
40982;BME280;26708;50.304;19.028;2023-12-20T01:17:00;97704.34;;;9.04;43.24
40982;BME280;26708;50.304;19.028;2023-12-20T01:19:09;97705.19;;;9.07;43.74
40982;BME280;26708;50.304;19.028;2023-12-20T01:21:12;97692.16;;;9.04;43.14
40982;BME280;26708;50.304;19.028;2023-12-20T01:23:18;97622.16;;;8.62;43.38
40982;BME280;26708;50.304;19.028;2023-12-20T01:25:21;97666.91;;;9.05;43.11
40982;BME280;26708;50.304;19.028;2023-12-20T01:27:26;97549.47;;;8.35;43.02
40982;BME280;26708;50.304;19.028;2023-12-20T01:29:32;97659.09;;;9.06;42.62
40982;BME280;26708;50.304;19.028;2023-12-20T01:31:43;97675.56;;;9.11;42.27
40982;BME280;26708;50.304;19.028;2023-12-20T01:33:51;97657.19;;;9.20;42.31
40982;BME280;26708;50.304;19.028;2023-12-20T01:35:58;97555.19;;;8.69;41.66
40982;BME280;26708;50.304;19.028;2023-12-20T01:38:04;97520.78;;;8.37;41.50
40982;BME280;26708;50.304;19.028;2023-12-20T01:40:10;97559.44;;;8.74;41.27
40982;BME280;26708;50.304;19.028;2023-12-20T01:42:15;97614.88;;;8.93;41.02
40982;BME280;26708;50.304;19.028;2023-12-20T01:44:22;97546.69;;;8.50;40.75
40982;BME280;26708;50.304;19.028;2023-12-20T01:46:28;97591.47;;;8.88;40.80
40982;BME280;26708;50.304;19.028;2023-12-20T01:48:35;97665.72;;;9.33;40.53
40982;BME280;26708;50.304;19.028;2023-12-20T01:50:50;97534.66;;;8.36;40.23
40982;BME280;26708;50.304;19.028;2023-12-20T01:52:56;97701.38;;;9.35;40.42
40982;BME280;26708;50.304;19.028;2023-12-20T01:55:06;97628.53;;;9.13;40.39
40982;BME280;26708;50.304;19.028;2023-12-20T01:57:15;97659.59;;;9.37;40.36
40982;BME280;26708;50.304;19.028;2023-12-20T01:59:21;97645.91;;;9.18;40.34
40982;BME280;26708;50.304;19.028;2023-12-20T02:01:27;97669.09;;;9.41;39.89
40982;BME280;26708;50.304;19.028;2023-12-20T02:03:37;97530.81;;;8.71;39.91
40982;BME280;26708;50.304;19.028;2023-12-20T02:05:44;97651.66;;;9.44;39.82
40982;BME280;26708;50.304;19.028;2023-12-20T02:07:55;97457.41;;;8.30;40.00
40982;BME280;26708;50.304;19.028;2023-12-20T02:10:03;97597.19;;;9.17;39.92
40982;BME280;26708;50.304;19.028;2023-12-20T02:12:10;97534.97;;;8.84;39.75
40982;BME280;26708;50.304;19.028;2023-12-20T02:14:16;97618.59;;;9.43;39.30
40982;BME280;26708;50.304;19.028;2023-12-20T02:16:23;97580.53;;;9.27;39.77
40982;BME280;26708;50.304;19.028;2023-12-20T02:18:31;97528.78;;;8.91;39.59
40982;BME280;26708;50.304;19.028;2023-12-20T02:20:35;97660.31;;;9.48;40.09
40982;BME280;26708;50.304;19.028;2023-12-20T02:22:45;97651.53;;;9.52;39.45
40982;BME280;26708;50.304;19.028;2023-12-20T02:24:49;97644.56;;;9.52;39.13
40982;BME280;26708;50.304;19.028;2023-12-20T02:26:51;97659.38;;;9.52;39.83
40982;BME280;26708;50.304;19.028;2023-12-20T02:28:58;97655.91;;;9.51;39.16
40982;BME280;26708;50.304;19.028;2023-12-20T02:31:04;97629.94;;;9.41;39.57
40982;BME280;26708;50.304;19.028;2023-12-20T02:33:11;97541.81;;;8.94;39.63
40982;BME280;26708;50.304;19.028;2023-12-20T02:35:16;97621.19;;;9.45;38.98
40982;BME280;26708;50.304;19.028;2023-12-20T02:37:23;97552.38;;;8.84;39.41
40982;BME280;26708;50.304;19.028;2023-12-20T02:39:31;97661.28;;;9.41;39.29
40982;BME280;26708;50.304;19.028;2023-12-20T02:41:34;97659.56;;;9.38;39.43
40982;BME280;26708;50.304;19.028;2023-12-20T02:43:38;97553.47;;;8.65;39.17
40982;BME280;26708;50.304;19.028;2023-12-20T02:45:45;97625.84;;;9.20;39.57
40982;BME280;26708;50.304;19.028;2023-12-20T02:47:51;97506.69;;;8.53;40.02
40982;BME280;26708;50.304;19.028;2023-12-20T02:49:55;97631.03;;;9.25;40.13
40982;BME280;26708;50.304;19.028;2023-12-20T02:52:00;97635.38;;;9.24;40.19
40982;BME280;26708;50.304;19.028;2023-12-20T02:54:07;97627.59;;;9.21;39.97
40982;BME280;26708;50.304;19.028;2023-12-20T02:56:16;97579.31;;;8.87;40.08
40982;BME280;26708;50.304;19.028;2023-12-20T02:58:23;97632.75;;;9.24;40.20
40982;BME280;26708;50.304;19.028;2023-12-20T03:00:28;97633.63;;;9.23;40.83
40982;BME280;26708;50.304;19.028;2023-12-20T03:02:30;97537.03;;;8.57;40.87
40982;BME280;26708;50.304;19.028;2023-12-20T03:04:35;97624.31;;;9.04;41.54
40982;BME280;26708;50.304;19.028;2023-12-20T03:06:40;97632.16;;;9.04;41.92
40982;BME280;26708;50.304;19.028;2023-12-20T03:08:42;97641.75;;;8.99;42.58
40982;BME280;26708;50.304;19.028;2023-12-20T03:10:48;97643.59;;;8.94;43.55
40982;BME280;26708;50.304;19.028;2023-12-20T03:12:56;97612.47;;;8.76;43.87
40982;BME280;26708;50.304;19.028;2023-12-20T03:15:01;97596.03;;;8.67;44.71
40982;BME280;26708;50.304;19.028;2023-12-20T03:17:06;97655.75;;;8.95;44.85
40982;BME280;26708;50.304;19.028;2023-12-20T03:19:11;97611.66;;;8.70;45.34
40982;BME280;26708;50.304;19.028;2023-12-20T03:21:16;97633.25;;;8.82;45.70
40982;BME280;26708;50.304;19.028;2023-12-20T03:23:20;97634.94;;;8.89;45.75
40982;BME280;26708;50.304;19.028;2023-12-20T03:25:26;97634.09;;;8.87;46.13
40982;BME280;26708;50.304;19.028;2023-12-20T03:29:56;97652.41;;;8.81;46.42
40982;BME280;26708;50.304;19.028;2023-12-20T03:32:09;97524.41;;;8.18;46.82
40982;BME280;26708;50.304;19.028;2023-12-20T03:34:16;97545.19;;;8.24;47.61
40982;BME280;26708;50.304;19.028;2023-12-20T03:36:23;97636.81;;;8.77;47.92
40982;BME280;26708;50.304;19.028;2023-12-20T03:38:31;97633.31;;;8.76;48.27
40982;BME280;26708;50.304;19.028;2023-12-20T03:40:36;97627.28;;;8.73;48.30
40982;BME280;26708;50.304;19.028;2023-12-20T03:42:40;97645.56;;;8.71;48.49
40982;BME280;26708;50.304;19.028;2023-12-20T03:44:49;97636.91;;;8.68;49.03
40982;BME280;26708;50.304;19.028;2023-12-20T03:46:56;97520.31;;;7.93;48.91
40982;BME280;26708;50.304;19.028;2023-12-20T03:49:02;97553.91;;;8.20;48.95
40982;BME280;26708;50.304;19.028;2023-12-20T03:51:08;97503.06;;;7.82;49.08
40982;BME280;26708;50.304;19.028;2023-12-20T03:53:13;97636.13;;;8.57;49.17
40982;BME280;26708;50.304;19.028;2023-12-20T03:55:23;97531.63;;;7.93;49.38
40982;BME280;26708;50.304;19.028;2023-12-20T03:57:30;97528.19;;;7.85;49.54
40982;BME280;26708;50.304;19.028;2023-12-20T03:59:35;97597.31;;;8.24;49.57
40982;BME280;26708;50.304;19.028;2023-12-20T04:01:43;97621.66;;;8.29;49.87
40982;BME280;26708;50.304;19.028;2023-12-20T04:03:52;97638.84;;;8.48;49.97
40982;BME280;26708;50.304;19.028;2023-12-20T04:05:54;97639.78;;;8.41;50.29
40982;BME280;26708;50.304;19.028;2023-12-20T04:08:00;97636.31;;;8.39;50.86
40982;BME280;26708;50.304;19.028;2023-12-20T04:10:05;97642.41;;;8.35;50.86
40982;BME280;26708;50.304;19.028;2023-12-20T04:12:10;97648.56;;;8.29;51.21
40982;BME280;26708;50.304;19.028;2023-12-20T04:14:16;97645.13;;;8.24;51.14
40982;BME280;26708;50.304;19.028;2023-12-20T04:16:21;97657.31;;;8.19;51.82
40982;BME280;26708;50.304;19.028;2023-12-20T04:18:26;97651.25;;;8.14;52.03
40982;BME280;26708;50.304;19.028;2023-12-20T04:20:33;97640.88;;;8.08;52.20
40982;BME280;26708;50.304;19.028;2023-12-20T04:22:36;97643.53;;;8.05;52.26
40982;BME280;26708;50.304;19.028;2023-12-20T04:24:40;97628.81;;;7.97;52.64
40982;BME280;26708;50.304;19.028;2023-12-20T04:26:45;97647.91;;;7.97;52.90
40982;BME280;26708;50.304;19.028;2023-12-20T04:28:49;97645.34;;;7.93;53.38
40982;BME280;26708;50.304;19.028;2023-12-20T04:30:54;97626.34;;;7.77;53.45
40982;BME280;26708;50.304;19.028;2023-12-20T04:33:00;97609.13;;;7.59;53.87
40982;BME280;26708;50.304;19.028;2023-12-20T04:35:07;97647.22;;;7.75;53.95
40982;BME280;26708;50.304;19.028;2023-12-20T04:37:17;97604.03;;;7.42;54.43
40982;BME280;26708;50.304;19.028;2023-12-20T04:39:23;97646.41;;;7.67;54.80
40982;BME280;26708;50.304;19.028;2023-12-20T04:41:29;97638.63;;;7.62;54.84
40982;BME280;26708;50.304;19.028;2023-12-20T04:43:34;97661.19;;;7.60;55.37
40982;BME280;26708;50.304;19.028;2023-12-20T04:45:38;97564.31;;;7.10;55.61
40982;BME280;26708;50.304;19.028;2023-12-20T04:47:51;97632.59;;;7.54;56.11
40982;BME280;26708;50.304;19.028;2023-12-20T04:49:55;97604.03;;;7.42;56.01
40982;BME280;26708;50.304;19.028;2023-12-20T04:52:00;97567.75;;;7.17;56.24
40982;BME280;26708;50.304;19.028;2023-12-20T04:54:27;97502.94;;;6.81;56.60
40982;BME280;26708;50.304;19.028;2023-12-20T04:56:32;97536.63;;;7.00;56.69
40982;BME280;26708;50.304;19.028;2023-12-20T04:58:34;97484.75;;;6.70;56.80
40982;BME280;26708;50.304;19.028;2023-12-20T05:00:41;97629.06;;;7.64;56.67
40982;BME280;26708;50.304;19.028;2023-12-20T05:02:47;97623.00;;;7.62;56.71
40982;BME280;26708;50.304;19.028;2023-12-20T05:04:51;97559.06;;;7.22;56.79
40982;BME280;26708;50.304;19.028;2023-12-20T05:07:00;97612.66;;;7.50;57.12
40982;BME280;26708;50.304;19.028;2023-12-20T05:09:06;97612.66;;;7.52;57.51
40982;BME280;26708;50.304;19.028;2023-12-20T05:11:13;97518.50;;;6.87;57.57
40982;BME280;26708;50.304;19.028;2023-12-20T05:13:21;97582.44;;;7.25;57.41
40982;BME280;26708;50.304;19.028;2023-12-20T05:15:34;97582.44;;;7.28;57.86
40982;BME280;26708;50.304;19.028;2023-12-20T05:17:43;97623.97;;;7.48;57.94
40982;BME280;26708;50.304;19.028;2023-12-20T05:19:49;97553.91;;;7.13;58.00
40982;BME280;26708;50.304;19.028;2023-12-20T05:21:51;97616.13;;;7.49;57.79
40982;BME280;26708;50.304;19.028;2023-12-20T05:23:56;97547.84;;;7.07;57.89
40982;BME280;26708;50.304;19.028;2023-12-20T05:26:01;97630.00;;;7.54;58.11
40982;BME280;26708;50.304;19.028;2023-12-20T05:28:08;97614.41;;;7.48;58.01
40982;BME280;26708;50.304;19.028;2023-12-20T05:30:13;97620.47;;;7.52;58.04
40982;BME280;26708;50.304;19.028;2023-12-20T05:32:19;97582.47;;;7.21;58.21
40982;BME280;26708;50.304;19.028;2023-12-20T05:34:24;97633.47;;;7.50;58.28
40982;BME280;26708;50.304;19.028;2023-12-20T05:36:29;97590.25;;;7.27;58.27
40982;BME280;26708;50.304;19.028;2023-12-20T05:38:34;97618.78;;;7.43;58.81
40982;BME280;26708;50.304;19.028;2023-12-20T05:40:36;97637.00;;;7.40;59.00
40982;BME280;26708;50.304;19.028;2023-12-20T05:42:41;97626.63;;;7.36;58.93
40982;BME280;26708;50.304;19.028;2023-12-20T05:44:49;97550.59;;;6.86;59.25
40982;BME280;26708;50.304;19.028;2023-12-20T05:46:55;97387.25;;;5.97;59.40
40982;BME280;26708;50.304;19.028;2023-12-20T05:49:00;97540.19;;;6.77;59.29
40982;BME280;26708;50.304;19.028;2023-12-20T05:51:05;97573.03;;;7.00;59.22
40982;BME280;26708;50.304;19.028;2023-12-20T05:53:10;97577.41;;;6.98;59.21
40982;BME280;26708;50.304;19.028;2023-12-20T05:55:17;97500.47;;;6.40;59.38
40982;BME280;26708;50.304;19.028;2023-12-20T05:57:29;97554.94;;;6.66;59.45
40982;BME280;26708;50.304;19.028;2023-12-20T05:59:34;97618.06;;;7.11;59.59
40982;BME280;26708;50.304;19.028;2023-12-20T06:01:41;97484.91;;;6.31;59.69
40982;BME280;26708;50.304;19.028;2023-12-20T06:03:47;97548.94;;;6.55;59.57
40982;BME280;26708;50.304;19.028;2023-12-20T06:05:52;97618.09;;;7.02;59.60
40982;BME280;26708;50.304;19.028;2023-12-20T06:07:58;97575.75;;;6.78;60.15
40982;BME280;26708;50.304;19.028;2023-12-20T06:10:06;97518.66;;;6.42;60.06
40982;BME280;26708;50.304;19.028;2023-12-20T06:12:08;97625.03;;;7.06;59.90
40982;BME280;26708;50.304;19.028;2023-12-20T06:14:13;97623.31;;;7.02;59.96
40982;BME280;26708;50.304;19.028;2023-12-20T06:16:18;97525.63;;;6.22;60.08
40982;BME280;26708;50.304;19.028;2023-12-20T06:18:34;97501.44;;;5.99;59.98
40982;BME280;26708;50.304;19.028;2023-12-20T06:20:39;97628.56;;;6.83;60.30
40982;BME280;26708;50.304;19.028;2023-12-20T06:22:53;97580.97;;;6.54;60.60
40982;BME280;26708;50.304;19.028;2023-12-20T06:24:58;97633.78;;;6.78;60.54
40982;BME280;26708;50.304;19.028;2023-12-20T06:27:06;97625.97;;;6.72;60.79
40982;BME280;26708;50.304;19.028;2023-12-20T06:29:43;97544.72;;;6.01;61.05
40982;BME280;26708;50.304;19.028;2023-12-20T06:31:49;97618.22;;;6.54;61.47
40982;BME280;26708;50.304;19.028;2023-12-20T06:34:03;97626.00;;;6.63;61.58
40982;BME280;26708;50.304;19.028;2023-12-20T06:36:11;97632.91;;;6.69;61.45
40982;BME280;26708;50.304;19.028;2023-12-20T06:38:19;97643.31;;;6.69;61.38
40982;BME280;26708;50.304;19.028;2023-12-20T06:40:26;97664.09;;;6.69;61.58
40982;BME280;26708;50.304;19.028;2023-12-20T06:42:32;97646.78;;;6.71;61.42
40982;BME280;26708;50.304;19.028;2023-12-20T06:44:37;97648.53;;;6.75;61.48
40982;BME280;26708;50.304;19.028;2023-12-20T06:46:44;97639.88;;;6.74;61.72
40982;BME280;26708;50.304;19.028;2023-12-20T06:48:50;97647.66;;;6.77;61.64
40982;BME280;26708;50.304;19.028;2023-12-20T06:50:59;97573.22;;;6.34;61.70
40982;BME280;26708;50.304;19.028;2023-12-20T06:53:06;97549.00;;;6.28;61.51
40982;BME280;26708;50.304;19.028;2023-12-20T06:55:12;97626.91;;;6.74;61.33
40982;BME280;26708;50.304;19.028;2023-12-20T06:57:20;97626.91;;;6.74;61.42
40982;BME280;26708;50.304;19.028;2023-12-20T06:59:22;97657.16;;;6.92;61.60
40982;BME280;26708;50.304;19.028;2023-12-20T07:01:28;97585.31;;;6.53;61.42
40982;BME280;26708;50.304;19.028;2023-12-20T07:03:33;97622.56;;;6.78;61.23
40982;BME280;26708;50.304;19.028;2023-12-20T07:05:40;97605.25;;;6.56;61.38
40982;BME280;26708;50.304;19.028;2023-12-20T07:07:48;97620.78;;;6.72;61.51
40982;BME280;26708;50.304;19.028;2023-12-20T07:09:53;97602.63;;;6.57;61.57
40982;BME280;26708;50.304;19.028;2023-12-20T07:11:58;97453.06;;;5.74;61.82
40982;BME280;26708;50.304;19.028;2023-12-20T07:14:04;97567.16;;;6.38;61.85
40982;BME280;26708;50.304;19.028;2023-12-20T07:16:11;97660.63;;;6.97;61.44
40982;BME280;26708;50.304;19.028;2023-12-20T07:18:16;97572.34;;;6.46;61.82
40982;BME280;26708;50.304;19.028;2023-12-20T07:20:21;97594.81;;;6.59;61.37
40982;BME280;26708;50.304;19.028;2023-12-20T07:22:23;97555.06;;;6.39;61.59
40982;BME280;26708;50.304;19.028;2023-12-20T07:24:33;97623.38;;;6.89;61.56
40982;BME280;26708;50.304;19.028;2023-12-20T07:26:39;97647.56;;;7.10;61.90
40982;BME280;26708;50.304;19.028;2023-12-20T07:28:43;97654.47;;;7.11;61.77
40982;BME280;26708;50.304;19.028;2023-12-20T07:30:48;97580.91;;;6.69;61.99
40982;BME280;26708;50.304;19.028;2023-12-20T07:32:55;97568.84;;;6.53;61.55
40982;BME280;26708;50.304;19.028;2023-12-20T07:35:01;97613.84;;;6.88;61.81
40982;BME280;26708;50.304;19.028;2023-12-20T07:37:04;97611.22;;;6.86;61.83
40982;BME280;26708;50.304;19.028;2023-12-20T07:39:12;97563.66;;;6.54;62.04
40982;BME280;26708;50.304;19.028;2023-12-20T07:41:19;97663.16;;;7.10;62.09
40982;BME280;26708;50.304;19.028;2023-12-20T07:43:25;97561.09;;;6.45;62.19
40982;BME280;26708;50.304;19.028;2023-12-20T07:45:30;97671.84;;;7.12;62.39
40982;BME280;26708;50.304;19.028;2023-12-20T07:47:32;97509.19;;;6.14;62.09
40982;BME280;26708;50.304;19.028;2023-12-20T07:49:37;97672.69;;;7.13;62.26
40982;BME280;26708;50.304;19.028;2023-12-20T07:51:42;97670.13;;;7.10;62.25
40982;BME280;26708;50.304;19.028;2023-12-20T07:53:47;97550.72;;;6.33;62.42
40982;BME280;26708;50.304;19.028;2023-12-20T07:55:49;97665.78;;;7.13;62.21
40982;BME280;26708;50.304;19.028;2023-12-20T07:57:57;97626.84;;;6.82;62.30
40982;BME280;26708;50.304;19.028;2023-12-20T08:00:02;97635.50;;;6.87;62.55
40982;BME280;26708;50.304;19.028;2023-12-20T08:02:08;97568.88;;;6.51;62.55
40982;BME280;26708;50.304;19.028;2023-12-20T08:04:14;97608.69;;;6.61;62.75
40982;BME280;26708;50.304;19.028;2023-12-20T08:06:22;97655.38;;;7.07;62.48
40982;BME280;26708;50.304;19.028;2023-12-20T08:08:41;97539.44;;;6.43;62.66
40982;BME280;26708;50.304;19.028;2023-12-20T08:10:46;97518.75;;;6.13;62.25
40982;BME280;26708;50.304;19.028;2023-12-20T08:12:51;97664.03;;;7.08;62.17
40982;BME280;26708;50.304;19.028;2023-12-20T08:14:58;97672.69;;;7.13;62.35
40982;BME280;26708;50.304;19.028;2023-12-20T08:17:04;97546.38;;;6.40;62.37
40982;BME280;26708;50.304;19.028;2023-12-20T08:19:09;97640.69;;;6.88;62.33
40982;BME280;26708;50.304;19.028;2023-12-20T08:21:14;97679.69;;;7.02;62.43
40982;BME280;26708;50.304;19.028;2023-12-20T08:23:21;97495.41;;;5.95;62.65
40982;BME280;26708;50.304;19.028;2023-12-20T08:25:26;97658.03;;;6.94;62.67
40982;BME280;26708;50.304;19.028;2023-12-20T08:27:31;97665.81;;;6.97;62.68
40982;BME280;26708;50.304;19.028;2023-12-20T08:29:42;97666.69;;;6.94;62.35
40982;BME280;26708;50.304;19.028;2023-12-20T08:32:30;97564.59;;;6.28;62.84
40982;BME280;26708;50.304;19.028;2023-12-20T08:34:36;97665.81;;;6.91;62.86
40982;BME280;26708;50.304;19.028;2023-12-20T08:36:42;97555.94;;;6.30;62.78
40982;BME280;26708;50.304;19.028;2023-12-20T08:38:46;97630.31;;;6.72;62.53
40982;BME280;26708;50.304;19.028;2023-12-20T08:43:11;97677.13;;;6.93;62.93
40982;BME280;26708;50.304;19.028;2023-12-20T08:45:15;97591.41;;;6.48;62.84
40982;BME280;26708;50.304;19.028;2023-12-20T08:47:17;97597.47;;;6.39;63.10
40982;BME280;26708;50.304;19.028;2023-12-20T08:49:26;97576.69;;;6.38;62.71
40982;BME280;26708;50.304;19.028;2023-12-20T08:51:31;97588.81;;;6.43;62.80
40982;BME280;26708;50.304;19.028;2023-12-20T08:53:33;97671.91;;;6.88;62.81
40982;BME280;26708;50.304;19.028;2023-12-20T08:55:38;97662.41;;;6.80;63.08
40982;BME280;26708;50.304;19.028;2023-12-20T08:57:42;97626.84;;;6.65;62.81
40982;BME280;26708;50.304;19.028;2023-12-20T08:59:47;97679.69;;;6.94;62.65
40982;BME280;26708;50.304;19.028;2023-12-20T09:01:52;97670.16;;;6.92;62.76
40982;BME280;26708;50.304;19.028;2023-12-20T09:03:58;97667.59;;;6.74;63.05
40982;BME280;26708;50.304;19.028;2023-12-20T09:06:06;97520.50;;;5.89;62.95
40982;BME280;26708;50.304;19.028;2023-12-20T09:08:13;97539.53;;;6.09;63.25
40982;BME280;26708;50.304;19.028;2023-12-20T09:10:16;97679.72;;;6.87;63.12
40982;BME280;26708;50.304;19.028;2023-12-20T09:12:26;97669.31;;;6.84;63.42
40982;BME280;26708;50.304;19.028;2023-12-20T09:14:29;97560.31;;;6.07;63.03
40982;BME280;26708;50.304;19.028;2023-12-20T09:16:40;97669.28;;;6.94;63.23
40982;BME280;26708;50.304;19.028;2023-12-20T09:18:45;97666.69;;;6.96;63.02
40982;BME280;26708;50.304;19.028;2023-12-20T09:20:55;97581.91;;;6.36;62.79
40982;BME280;26708;50.304;19.028;2023-12-20T09:23:03;97606.09;;;6.59;63.10
40982;BME280;26708;50.304;19.028;2023-12-20T09:25:09;97555.09;;;6.24;62.88
40982;BME280;26708;50.304;19.028;2023-12-20T09:27:20;97627.75;;;6.76;62.99
40982;BME280;26708;50.304;19.028;2023-12-20T09:29:26;97640.72;;;6.82;62.77
40982;BME280;26708;50.304;19.028;2023-12-20T09:31:32;97630.31;;;6.70;62.92
40982;BME280;26708;50.304;19.028;2023-12-20T09:33:39;97625.13;;;6.70;63.38
40982;BME280;26708;50.304;19.028;2023-12-20T09:35:45;97671.00;;;7.00;63.56
40982;BME280;26708;50.304;19.028;2023-12-20T09:37:51;97561.06;;;6.42;63.26
40982;BME280;26708;50.304;19.028;2023-12-20T09:40:06;97496.28;;;5.97;63.29
40982;BME280;26708;50.304;19.028;2023-12-20T09:42:24;97590.50;;;6.59;63.31
40982;BME280;26708;50.304;19.028;2023-12-20T09:44:38;97499.69;;;6.16;63.40
40982;BME280;26708;50.304;19.028;2023-12-20T09:46:50;97577.50;;;6.61;63.23
40982;BME280;26708;50.304;19.028;2023-12-20T09:48:58;97666.63;;;7.09;63.27
40982;BME280;26708;50.304;19.028;2023-12-20T09:51:06;97577.50;;;6.61;63.16
40982;BME280;26708;50.304;19.028;2023-12-20T09:53:16;97648.44;;;7.05;63.28
40982;BME280;26708;50.304;19.028;2023-12-20T09:55:30;97622.53;;;6.82;63.41
40982;BME280;26708;50.304;19.028;2023-12-20T09:57:37;97601.69;;;6.84;63.69
40982;BME280;26708;50.304;19.028;2023-12-20T09:59:55;97507.47;;;6.19;63.31
40982;BME280;26708;50.304;19.028;2023-12-20T10:02:01;97647.56;;;7.10;63.65
40982;BME280;26708;50.304;19.028;2023-12-20T10:04:17;97609.50;;;6.87;63.50
40982;BME280;26708;50.304;19.028;2023-12-20T10:06:24;97523.00;;;6.32;63.30
40982;BME280;26708;50.304;19.028;2023-12-20T10:08:28;97640.63;;;7.05;63.46
40982;BME280;26708;50.304;19.028;2023-12-20T10:10:36;97644.06;;;7.13;63.46
40982;BME280;26708;50.304;19.028;2023-12-20T10:13:01;97611.25;;;6.80;63.54
40982;BME280;26708;50.304;19.028;2023-12-20T10:15:11;97427.09;;;5.78;63.49
40982;BME280;26708;50.304;19.028;2023-12-20T10:17:19;97651.03;;;7.08;63.65
40982;BME280;26708;50.304;19.028;2023-12-20T10:19:38;97598.25;;;6.76;63.65
40982;BME280;26708;50.304;19.028;2023-12-20T10:21:46;97387.38;;;5.46;63.40
40982;BME280;26708;50.304;19.028;2023-12-20T10:23:51;97488.47;;;6.06;63.63
40982;BME280;26708;50.304;19.028;2023-12-20T10:26:02;97536.84;;;6.34;63.49
40982;BME280;26708;50.304;19.028;2023-12-20T10:28:14;97581.84;;;6.62;63.56
40982;BME280;26708;50.304;19.028;2023-12-20T10:30:24;97519.59;;;6.27;63.28
40982;BME280;26708;50.304;19.028;2023-12-20T10:32:30;97608.66;;;6.82;63.59
40982;BME280;26708;50.304;19.028;2023-12-20T10:34:37;97664.94;;;6.99;63.46
40982;BME280;26708;50.304;19.028;2023-12-20T10:36:42;97636.38;;;6.87;63.67
40982;BME280;26708;50.304;19.028;2023-12-20T10:38:52;97587.03;;;6.65;63.87
40982;BME280;26708;50.304;19.028;2023-12-20T10:41:07;97448.72;;;5.76;63.56
40982;BME280;26708;50.304;19.028;2023-12-20T10:43:21;97643.22;;;7.09;64.03
40982;BME280;26708;50.304;19.028;2023-12-20T10:45:36;97606.91;;;6.91;64.07
40982;BME280;26708;50.304;19.028;2023-12-20T10:47:42;97643.22;;;7.17;63.72
40982;BME280;26708;50.304;19.028;2023-12-20T10:49:50;97557.59;;;6.57;63.43
40982;BME280;26708;50.304;19.028;2023-12-20T10:52:05;97577.44;;;6.82;63.54
40982;BME280;26708;50.304;19.028;2023-12-20T10:54:12;97600.81;;;6.92;63.47
40982;BME280;26708;50.304;19.028;2023-12-20T10:56:21;97618.13;;;6.99;63.76
40982;BME280;26708;50.304;19.028;2023-12-20T10:58:39;97638.00;;;7.17;63.96
40982;BME280;26708;50.304;19.028;2023-12-20T11:01:00;97455.56;;;6.08;63.54
40982;BME280;26708;50.304;19.028;2023-12-20T11:03:10;97625.88;;;7.14;63.43
40982;BME280;26708;50.304;19.028;2023-12-20T11:05:33;97595.59;;;6.97;63.39
40982;BME280;26708;50.304;19.028;2023-12-20T11:07:53;97560.13;;;6.73;63.29
40982;BME280;26708;50.304;19.028;2023-12-20T11:10:22;97625.84;;;7.19;63.58
40982;BME280;26708;50.304;19.028;2023-12-20T11:12:48;97636.25;;;7.19;63.52
40982;BME280;26708;50.304;19.028;2023-12-20T11:15:17;97540.22;;;6.68;63.52
40982;BME280;26708;50.304;19.028;2023-12-20T11:17:30;97624.97;;;7.20;63.73
40982;BME280;26708;50.304;19.028;2023-12-20T11:20:06;97630.19;;;7.21;63.68